aviador You're here:

KDEN Decoded Metar

DENVER in CO, USA
Report Time2018-04-24 13:53:00
UTC Time2018-04-24 14:12:26
Flight Rules vfr VFR
Wind030° at 07 kt
W.Decomp.*RWY 35: 5.9 kt HW 3.7 kt RCW
RWY 34: 5.2 kt HW 4.7 kt RCW
RWY 07: 4.7 kt HW 5.2 kt LCW
RWY 08: 3.7 kt HW 5.9 kt LCW
W.Rank030° ranks 23
Current wind is below 030° avg. (9.5)
Visibility9999 m
Phenomena:N/A
Clouds:Few 009 Hf
Overcast 040 Hf
Expected CloudBase > 800 ft AGL from Temp-Dew spread
Ceiling4,000 ft
Temp01°C (ISA -3)
Dew Point-1°C (87% RH)
AAT-3.6°C
QNH1030 hPa
Density Alt4,501 ft
Elevation5,381 ft
Report Wrong Elevation
Raw Report
KDEN 241353Z 03007KT 10SM FEW009 OVC040 01/M01 A3041 RMK AO2 SNE00
SLP274 P0000 T00061011=

Extra information for KDEN:More info

Metar Taf Metar & Taf Last 4 Metars F.Rules Stats Wind Profile Meteogram Temp Stats Airport Information Weather charts Add Link Nearby VenuesMetar ALERT Operation Metar Decoded Social comments

AIRNAV info for KDEN